KBIH/BIH METAR and TAF weather

Enter ICAO airport designator
Station Type Date Time Source
KBIH METAR 2024/04/18 06:56 UTC NOAA

KBIH 180656Z AUTO 05004KT 10SM CLR 13/M02 A3000 RMK AO2 SLP120 T01331022


Station Type Date Time Source
KBIH Decoded METAR 2024/04/18 06:56 UTC NOAA

BISHOP AIRPORT, CA, United States (KBIH) 37-22N 118-22W 1253M
Apr 18, 2024 - 02:56 AM EDT / 2024.04.18 0656 UTC
Wind: from the NE (050 degrees) at 5 MPH (4 KT):0
Visibility: 10 mile(s):0
Sky conditions: clear
Temperature: 55.9 F (13.3 C)
Dew Point: 28.0 F (-2.2 C)
Relative Humidity: 34%
Pressure (altimeter): 30 in. Hg (1015 hPa)
ob: KBIH 180656Z AUTO 05004KT 10SM CLR 13/M02 A3000 RMK AO2 SLP120 T01331022
cycle: 7

Station Type Date Time Source
KBIH TAF 2024/04/18 06:22 UTC NOAA